Time;durP1;ratioP1;P1;durP2;ratioP2;P2;SDS_P1;SDS_P2;PMS_P1;PMS_P2;Temp;Humidity;BMP_temperature;BMP_pressure;BME280_temperature;BME280_humidity;BME280_pressure;Samples;Min_cycle;Max_cycle;Signal;HPM_P1;HPM_P2
2023/08/23 00:01:53;;;;;;;0.00;0.00;;;22.60;99.90;;;;;;5051290;28;20188;-64
2023/08/23 00:04:19;;;;;;;0.00;0.00;;;22.60;99.90;;;;;;5051312;28;20272;-64
2023/08/23 00:06:45;;;;;;;0.00;0.00;;;22.60;99.90;;;;;;5051182;28;20177;-64
2023/08/23 00:09:11;;;;;;;0.00;0.00;;;22.60;99.90;;;;;;5051147;28;20960;-64
2023/08/23 00:11:37;;;;;;;0.00;0.00;;;22.60;99.90;;;;;;5049811;28;20641;-64
2023/08/23 00:14:02;;;;;;;0.00;0.00;;;22.50;99.90;;;;;;5051160;28;20248;-64
2023/08/23 00:16:28;;;;;;;0.00;0.00;;;22.50;99.90;;;;;;5051126;28;20204;-64
2023/08/23 00:18:54;;;;;;;0.00;0.00;;;22.50;99.90;;;;;;5050781;28;20181;-63
2023/08/23 00:21:19;;;;;;;0.10;0.10;;;22.40;99.90;;;;;;5050826;28;20174;-64
2023/08/23 00:23:45;;;;;;;0.00;0.00;;;22.40;99.90;;;;;;5051046;28;20690;-63
2023/08/23 00:26:13;;;;;;;0.00;0.00;;;22.30;99.90;;;;;;5050876;28;20200;-64
2023/08/23 00:28:40;;;;;;;0.08;0.08;;;22.30;99.90;;;;;;5050958;28;20185;-64
2023/08/23 00:31:05;;;;;;;0.00;0.00;;;22.30;99.90;;;;;;5050749;28;20375;-63
2023/08/23 00:33:31;;;;;;;0.00;0.00;;;22.30;99.90;;;;;;5050988;28;20280;-64
2023/08/23 00:35:57;;;;;;;0.00;0.00;;;22.30;99.90;;;;;;5050697;28;20651;-64
2023/08/23 00:38:22;;;;;;;0.00;0.00;;;22.30;99.90;;;;;;5051005;28;20625;-64
2023/08/23 00:40:48;;;;;;;0.00;0.00;;;22.20;99.90;;;;;;5050806;28;20201;-64
2023/08/23 00:43:13;;;;;;;0.00;0.00;;;22.20;99.90;;;;;;5050671;28;20181;-64
2023/08/23 00:45:41;;;;;;;0.00;0.00;;;22.20;99.90;;;;;;5050919;28;20185;-64
2023/08/23 00:48:08;;;;;;;0.20;0.10;;;22.20;99.90;;;;;;5050631;28;20227;-64
2023/08/23 00:50:35;;;;;;;0.10;0.10;;;22.10;99.90;;;;;;5050758;28;20591;-64
2023/08/23 00:53:02;;;;;;;0.00;0.00;;;22.10;99.90;;;;;;5050831;28;20180;-64
2023/08/23 00:55:28;;;;;;;0.00;0.00;;;22.10;99.90;;;;;;5050489;28;20591;-64
2023/08/23 00:57:54;;;;;;;0.00;0.00;;;22.00;99.90;;;;;;5050463;28;20184;-64
2023/08/23 01:00:20;;;;;;;0.08;0.08;;;22.00;99.90;;;;;;5050450;28;20793;-64
2023/08/23 01:02:46;;;;;;;0.00;0.00;;;22.00;99.90;;;;;;5050489;28;20170;-63
2023/08/23 01:05:12;;;;;;;0.20;0.20;;;22.00;99.90;;;;;;5050396;28;20513;-64
2023/08/23 01:07:49;;;;;;;0.00;0.00;;;21.90;99.90;;;;;;5050471;28;20178;-63
2023/08/23 01:10:30;;;;;;;0.03;0.03;;;21.90;99.90;;;;;;5050354;28;20624;-64
2023/08/23 01:13:09;;;;;;;0.00;0.00;;;21.80;99.90;;;;;;5049999;28;20212;-64
2023/08/23 01:15:35;;;;;;;0.05;0.00;;;21.80;99.90;;;;;;5050389;28;20576;-64
2023/08/23 01:18:02;;;;;;;0.00;0.00;;;21.70;99.90;;;;;;5050197;28;20641;-63
2023/08/23 01:20:28;;;;;;;0.00;0.00;;;21.70;99.90;;;;;;5050464;28;20185;-64
2023/08/23 01:23:13;;;;;;;0.00;0.00;;;21.70;99.90;;;;;;5050424;28;20647;-64
2023/08/23 01:25:51;;;;;;;0.08;0.08;;;21.60;99.90;;;;;;5050437;28;20177;-63
2023/08/23 01:28:18;;;;;;;0.00;0.00;;;21.60;99.90;;;;;;5049081;28;20208;-63
2023/08/23 01:30:44;;;;;;;0.00;0.00;;;21.50;99.90;;;;;;5050067;28;20245;-63
2023/08/23 01:33:25;;;;;;;0.00;0.00;;;21.50;99.90;;;;;;5053600;28;20196;-63
2023/08/23 01:36:03;;;;;;;0.00;0.00;;;21.50;99.90;;;;;;5054092;28;20185;-63
2023/08/23 01:38:30;;;;;;;0.00;0.00;;;21.50;99.90;;;;;;5054001;28;20173;-63
2023/08/23 01:40:57;;;;;;;0.00;0.00;;;21.40;99.90;;;;;;5053797;28;20188;-63
2023/08/23 01:43:22;;;;;;;0.00;0.00;;;21.40;99.90;;;;;;5053766;28;20629;-63
2023/08/23 01:45:48;;;;;;;0.00;0.00;;;21.30;99.90;;;;;;5052534;28;20181;-63
2023/08/23 01:48:14;;;;;;;0.00;0.00;;;21.30;99.90;;;;;;5053890;28;20180;-63
2023/08/23 01:50:40;;;;;;;0.00;0.00;;;21.20;99.90;;;;;;5053863;28;20188;-63
2023/08/23 01:53:06;;;;;;;0.00;0.00;;;21.20;99.90;;;;;;5053404;28;20307;-64
2023/08/23 01:55:32;;;;;;;0.00;0.00;;;21.20;99.90;;;;;;5053770;28;20264;-63
2023/08/23 01:57:57;;;;;;;0.00;0.00;;;21.20;99.90;;;;;;5053643;28;20327;-63
2023/08/23 02:00:23;;;;;;;0.00;0.00;;;21.20;99.90;;;;;;5053480;28;20256;-63
2023/08/23 02:02:49;;;;;;;0.00;0.00;;;21.10;99.90;;;;;;5053534;28;20196;-63
2023/08/23 02:05:14;;;;;;;0.00;0.00;;;21.10;99.90;;;;;;5053299;28;20177;-63
2023/08/23 02:07:40;;;;;;;0.00;0.00;;;21.10;99.90;;;;;;5053540;28;20177;-63
2023/08/23 02:10:06;;;;;;;0.00;0.00;;;21.10;99.90;;;;;;5053191;28;20169;-63
2023/08/23 02:12:31;;;;;;;0.00;0.00;;;21.00;99.90;;;;;;5053286;28;20188;-63
2023/08/23 02:14:57;;;;;;;0.00;0.00;;;21.00;99.90;;;;;;5053038;28;20220;-63
2023/08/23 02:17:23;;;;;;;0.00;0.00;;;21.00;99.90;;;;;;5051812;28;20181;-63
2023/08/23 02:19:49;;;;;;;0.00;0.00;;;20.90;99.90;;;;;;5053127;28;20165;-63
2023/08/23 02:22:14;;;;;;;0.00;0.00;;;20.90;99.90;;;;;;5053150;28;20178;-63
2023/08/23 02:24:40;;;;;;;0.00;0.00;;;20.90;99.90;;;;;;5052957;28;20185;-63
2023/08/23 02:27:05;;;;;;;0.00;0.00;;;20.80;99.90;;;;;;5052825;28;20185;-63
2023/08/23 02:29:31;;;;;;;0.00;0.00;;;20.80;99.90;;;;;;5052841;28;20323;-63
2023/08/23 02:31:57;;;;;;;0.00;0.00;;;20.80;99.90;;;;;;5052950;28;20181;-63
2023/08/23 02:34:22;;;;;;;0.00;0.00;;;20.70;99.90;;;;;;5052803;28;20232;-63
2023/08/23 02:36:48;;;;;;;0.00;0.00;;;20.70;99.90;;;;;;5052856;28;20174;-63
2023/08/23 02:39:13;;;;;;;0.00;0.00;;;20.70;99.90;;;;;;5052710;28;20627;-63
2023/08/23 02:41:39;;;;;;;0.00;0.00;;;20.70;99.90;;;;;;5052683;28;20170;-63
2023/08/23 02:44:05;;;;;;;0.00;0.00;;;20.60;99.90;;;;;;5051432;28;20165;-63
2023/08/23 02:46:30;;;;;;;0.00;0.00;;;20.60;99.90;;;;;;5052740;28;20205;-63
2023/08/23 02:48:56;;;;;;;0.10;0.10;;;20.50;99.90;;;;;;5052550;28;20252;-63
2023/08/23 02:51:21;;;;;;;0.00;0.00;;;20.50;99.90;;;;;;5052371;28;20182;-63
2023/08/23 02:53:47;;;;;;;0.00;0.00;;;20.50;99.90;;;;;;5052293;28;20209;-63
2023/08/23 02:56:12;;;;;;;0.00;0.00;;;20.50;99.90;;;;;;5052413;28;20186;-63
2023/08/23 02:58:38;;;;;;;0.00;0.00;;;20.50;99.90;;;;;;5052532;28;20268;-63
2023/08/23 03:01:03;;;;;;;0.00;0.00;;;20.50;99.90;;;;;;5052261;28;20202;-63
2023/08/23 03:03:29;;;;;;;0.00;0.00;;;20.40;99.90;;;;;;5052398;28;20248;-63
2023/08/23 03:05:56;;;;;;;0.03;0.03;;;20.40;99.90;;;;;;5052304;28;20227;-63
2023/08/23 03:08:22;;;;;;;0.00;0.00;;;20.40;99.90;;;;;;5052250;28;20223;-63
2023/08/23 03:10:48;;;;;;;0.00;0.00;;;20.40;99.90;;;;;;5052340;28;20699;-63
2023/08/23 03:13:13;;;;;;;0.00;0.00;;;20.40;99.90;;;;;;5052131;28;20182;-63
2023/08/23 03:15:39;;;;;;;0.08;0.08;;;20.30;99.90;;;;;;5052260;28;20177;-63
2023/08/23 03:18:05;;;;;;;0.00;0.00;;;20.30;99.90;;;;;;5052028;28;20173;-63
2023/08/23 03:20:30;;;;;;;0.38;0.20;;;20.30;99.90;;;;;;5052223;28;20230;-63
2023/08/23 03:22:56;;;;;;;0.00;0.00;;;20.20;99.90;;;;;;5052134;28;20178;-63
2023/08/23 03:25:21;;;;;;;0.00;0.00;;;20.20;99.90;;;;;;5052022;28;20189;-63
2023/08/23 03:27:52;;;;;;;0.03;0.03;;;20.10;99.90;;;;;;5052035;28;20201;-63
2023/08/23 03:30:18;;;;;;;0.00;0.00;;;20.10;99.90;;;;;;5051672;28;20760;-64
2023/08/23 03:32:43;;;;;;;0.00;0.00;;;20.00;99.90;;;;;;5051595;28;20181;-63
2023/08/23 03:35:09;;;;;;;0.00;0.00;;;20.00;99.90;;;;;;5051492;28;20351;-63
2023/08/23 03:37:34;;;;;;;0.00;0.00;;;20.00;99.90;;;;;;5051456;28;20209;-63
2023/08/23 03:40:00;;;;;;;0.00;0.00;;;20.00;99.90;;;;;;5051444;28;20192;-63
2023/08/23 03:42:26;;;;;;;0.00;0.00;;;20.00;99.90;;;;;;5051616;28;20170;-63
2023/08/23 03:44:52;;;;;;;0.00;0.00;;;19.90;99.90;;;;;;5051529;28;20258;-63
2023/08/23 03:47:17;;;;;;;0.00;0.00;;;19.90;99.90;;;;;;5051597;28;20264;-63
2023/08/23 03:49:43;;;;;;;0.00;0.00;;;19.90;99.90;;;;;;5051522;28;20212;-63
2023/08/23 03:52:08;;;;;;;0.30;0.17;;;19.90;99.90;;;;;;5050066;28;20177;-62
2023/08/23 03:54:34;;;;;;;0.00;0.00;;;19.90;99.90;;;;;;5051019;28;20221;-63
2023/08/23 03:57:00;;;;;;;0.10;0.10;;;19.90;99.90;;;;;;5051288;28;20256;-63
2023/08/23 03:59:25;;;;;;;0.00;0.00;;;19.90;99.90;;;;;;5051422;28;20177;-63
2023/08/23 04:01:51;;;;;;;0.00;0.00;;;19.90;99.90;;;;;;5051261;28;20315;-63
2023/08/23 04:04:16;;;;;;;0.00;0.00;;;19.90;99.90;;;;;;5051326;28;20180;-63
2023/08/23 04:06:42;;;;;;;0.00;0.00;;;19.80;99.90;;;;;;5051223;28;20177;-63
2023/08/23 04:09:07;;;;;;;0.00;0.00;;;19.80;99.90;;;;;;5051511;28;20174;-62
2023/08/23 04:11:33;;;;;;;0.00;0.00;;;19.70;99.90;;;;;;5051280;28;20177;-62
2023/08/23 04:13:59;;;;;;;0.10;0.05;;;19.80;99.90;;;;;;5051008;28;20215;-63
2023/08/23 04:16:24;;;;;;;0.00;0.00;;;19.70;99.90;;;;;;5051178;28;20238;-62
2023/08/23 04:18:50;;;;;;;0.00;0.00;;;19.70;99.90;;;;;;5051240;28;20208;-62
2023/08/23 04:21:15;;;;;;;0.10;0.10;;;19.70;99.90;;;;;;5051141;28;20198;-62
2023/08/23 04:23:41;;;;;;;0.00;0.00;;;19.60;99.90;;;;;;5051198;28;20574;-62
2023/08/23 04:26:07;;;;;;;0.00;0.00;;;19.60;99.90;;;;;;5051014;28;20185;-62
2023/08/23 04:28:33;;;;;;;0.00;0.00;;;19.60;99.90;;;;;;5051265;28;20177;-62
2023/08/23 04:31:01;;;;;;;0.00;0.00;;;19.50;99.90;;;;;;5050812;28;20580;-63
2023/08/23 04:33:27;;;;;;;0.00;0.00;;;19.50;99.90;;;;;;5051046;28;20640;-63
2023/08/23 04:35:52;;;;;;;0.10;0.10;;;19.50;99.90;;;;;;5051213;28;20178;-63
2023/08/23 04:38:18;;;;;;;0.00;0.00;;;19.50;99.90;;;;;;5051160;28;20204;-62
2023/08/23 04:40:43;;;;;;;0.00;0.00;;;19.50;99.90;;;;;;5050994;28;20660;-63
2023/08/23 04:43:09;;;;;;;0.10;0.10;;;19.50;99.90;;;;;;5051066;28;20181;-63
2023/08/23 04:45:39;;;;;;;0.00;0.00;;;19.40;99.90;;;;;;5051158;28;20180;-62
2023/08/23 04:48:05;;;;;;;0.00;0.00;;;19.40;99.90;;;;;;5050888;28;20675;-63
2023/08/23 04:50:33;;;;;;;0.00;0.00;;;19.40;99.90;;;;;;5051198;28;20189;-63
2023/08/23 04:52:59;;;;;;;0.00;0.00;;;19.40;99.90;;;;;;5050876;28;20661;-62
2023/08/23 04:55:24;;;;;;;0.00;0.00;;;19.40;99.90;;;;;;5050797;28;20224;-62
2023/08/23 04:57:50;;;;;;;0.28;0.28;;;19.40;99.90;;;;;;5050907;28;20178;-62
2023/08/23 05:00:16;;;;;;;0.00;0.00;;;19.50;99.90;;;;;;5050961;28;20181;-62
2023/08/23 05:02:41;;;;;;;0.00;0.00;;;19.50;99.90;;;;;;5050806;28;20184;-62
2023/08/23 05:05:07;;;;;;;0.03;0.03;;;19.50;99.90;;;;;;5050732;28;20177;-63
2023/08/23 05:07:35;;;;;;;0.20;0.20;;;19.50;99.90;;;;;;5053479;28;20260;-62
2023/08/23 05:10:01;;;;;;;0.00;0.00;;;19.50;99.90;;;;;;5054517;28;20177;-62
2023/08/23 05:12:26;;;;;;;0.00;0.00;;;19.60;99.90;;;;;;5054703;28;20177;-62
2023/08/23 05:14:52;;;;;;;0.00;0.00;;;19.70;99.90;;;;;;5054510;28;20271;-63
2023/08/23 05:17:18;;;;;;;0.00;0.00;;;19.80;99.90;;;;;;5054420;28;20190;-63
2023/08/23 05:19:44;;;;;;;0.00;0.00;;;20.00;99.90;;;;;;5054400;28;20261;-63
2023/08/23 05:22:10;;;;;;;0.00;0.00;;;20.10;99.90;;;;;;5054490;28;20260;-62
2023/08/23 05:24:35;;;;;;;0.00;0.00;;;20.30;99.90;;;;;;5054471;28;20260;-62
2023/08/23 05:27:01;;;;;;;0.00;0.00;;;20.40;99.90;;;;;;5054351;28;20264;-62
2023/08/23 05:29:26;;;;;;;0.00;0.00;;;20.60;99.90;;;;;;5054130;28;20410;-62
2023/08/23 05:31:52;;;;;;;0.00;0.00;;;20.80;99.90;;;;;;5054340;28;20181;-62
2023/08/23 05:34:17;;;;;;;0.00;0.00;;;20.90;99.90;;;;;;5054057;28;20225;-62
2023/08/23 05:36:43;;;;;;;0.00;0.00;;;21.00;99.90;;;;;;5054059;28;20174;-63
2023/08/23 05:39:09;;;;;;;0.00;0.00;;;21.20;99.90;;;;;;5054034;28;20211;-62
2023/08/23 05:41:35;;;;;;;0.10;0.10;;;21.30;99.90;;;;;;5053989;28;20177;-62
2023/08/23 05:44:01;;;;;;;0.00;0.00;;;21.50;99.90;;;;;;5054073;28;20173;-62
2023/08/23 05:46:26;;;;;;;0.00;0.00;;;21.80;99.90;;;;;;5053978;28;20508;-62
2023/08/23 05:48:52;;;;;;;0.00;0.00;;;22.10;99.90;;;;;;5054025;28;20181;-62
2023/08/23 05:51:17;;;;;;;0.00;0.00;;;22.50;99.90;;;;;;5053940;28;20166;-62
2023/08/23 05:53:43;;;;;;;0.00;0.00;;;22.90;99.90;;;;;;5053677;28;20555;-63
2023/08/23 05:56:08;;;;;;;0.00;0.00;;;23.30;99.90;;;;;;5053779;28;20185;-62
2023/08/23 05:58:34;;;;;;;0.00;0.00;;;23.60;99.90;;;;;;5053875;28;20166;-62
2023/08/23 06:00:59;;;;;;;0.00;0.00;;;24.00;99.90;;;;;;5053688;28;20177;-62
2023/08/23 06:03:25;;;;;;;0.00;0.00;;;24.40;99.90;;;;;;5053638;28;20177;-63
2023/08/23 06:05:56;;;;;;;0.00;0.00;;;24.90;99.90;;;;;;5053669;28;20621;-62
2023/08/23 06:08:22;;;;;;;0.00;0.00;;;25.30;99.90;;;;;;5053493;28;20173;-63
2023/08/23 06:10:48;;;;;;;0.00;0.00;;;25.60;99.90;;;;;;5053675;28;20166;-63
2023/08/23 06:13:14;;;;;;;0.10;0.10;;;25.90;99.90;;;;;;5053459;28;20177;-63
2023/08/23 06:15:40;;;;;;;0.00;0.00;;;26.20;99.90;;;;;;5053480;28;20271;-63
2023/08/23 06:18:05;;;;;;;0.43;0.15;;;26.70;99.90;;;;;;5051760;28;20223;-63
2023/08/23 06:20:31;;;;;;;0.00;0.00;;;27.20;99.90;;;;;;5053513;28;20186;-63
2023/08/23 06:22:57;;;;;;;0.00;0.00;;;27.60;99.90;;;;;;5053309;28;20178;-63
2023/08/23 06:25:23;;;;;;;0.00;0.00;;;27.90;99.30;;;;;;5053328;28;20242;-63
2023/08/23 06:27:48;;;;;;;0.00;0.00;;;28.30;98.90;;;;;;5053267;28;20637;-63
2023/08/23 06:30:17;;;;;;;0.00;0.00;;;28.70;98.40;;;;;;5052948;28;20233;-62
2023/08/23 06:32:45;;;;;;;0.00;0.00;;;29.20;97.40;;;;;;5053142;28;20641;-62
2023/08/23 06:35:11;;;;;;;0.00;0.00;;;29.60;96.40;;;;;;5053006;28;20312;-62
2023/08/23 06:37:37;;;;;;;0.00;0.00;;;29.90;95.40;;;;;;5053108;28;20261;-62
2023/08/23 06:40:02;;;;;;;0.00;0.00;;;30.10;94.70;;;;;;5052871;28;20181;-62
2023/08/23 06:42:28;;;;;;;0.00;0.00;;;30.50;94.00;;;;;;5052992;28;20177;-62
2023/08/23 06:44:54;;;;;;;0.00;0.00;;;30.70;93.70;;;;;;5052947;28;20671;-62
2023/08/23 06:47:20;;;;;;;0.00;0.00;;;31.10;92.80;;;;;;5052971;28;20212;-62
2023/08/23 06:49:45;;;;;;;0.00;0.00;;;31.40;91.80;;;;;;5052725;28;20264;-63
2023/08/23 06:52:11;;;;;;;0.00;0.00;;;31.70;91.20;;;;;;5052827;28;20190;-61
2023/08/23 06:54:36;;;;;;;0.00;0.00;;;32.10;89.80;;;;;;5052686;28;20215;-61
2023/08/23 06:57:02;;;;;;;0.10;0.10;;;32.30;88.90;;;;;;5052503;28;20173;-61
2023/08/23 06:59:27;;;;;;;0.00;0.00;;;32.60;88.70;;;;;;5052758;28;20168;-61
2023/08/23 07:01:53;;;;;;;0.00;0.00;;;32.80;86.60;;;;;;5052582;28;20185;-61
2023/08/23 07:04:18;;;;;;;0.00;0.00;;;32.90;85.80;;;;;;5052655;28;20184;-61
2023/08/23 07:06:44;;;;;;;0.00;0.00;;;33.30;85.00;;;;;;5052430;28;20165;-61
2023/08/23 07:09:10;;;;;;;0.00;0.00;;;33.60;83.50;;;;;;5052441;28;20184;-61
2023/08/23 07:11:36;;;;;;;0.00;0.00;;;33.90;81.80;;;;;;5052452;28;20169;-61
2023/08/23 07:14:01;;;;;;;0.00;0.00;;;34.10;80.00;;;;;;5052198;28;20219;-61
2023/08/23 07:16:27;;;;;;;0.10;0.10;;;34.40;78.70;;;;;;5052421;28;20263;-61
2023/08/23 07:18:52;;;;;;;0.00;0.00;;;34.60;78.20;;;;;;5052158;28;20173;-61
2023/08/23 07:21:18;;;;;;;0.00;0.00;;;35.00;75.40;;;;;;5052187;28;20169;-61
2023/08/23 07:23:43;;;;;;;3.00;0.20;;;35.10;74.00;;;;;;5052142;28;20264;-61
2023/08/23 07:26:09;;;;;;;0.00;0.00;;;35.20;73.20;;;;;;5052029;28;20181;-61
2023/08/23 07:28:35;;;;;;;0.00;0.00;;;35.40;71.40;;;;;;5052004;28;20172;-61
2023/08/23 07:31:02;;;;;;;0.00;0.00;;;35.60;71.00;;;;;;5051553;28;20620;-61
2023/08/23 07:33:28;;;;;;;0.00;0.00;;;35.70;71.20;;;;;;5051972;28;20197;-61
2023/08/23 07:35:58;;;;;;;0.00;0.00;;;35.80;69.60;;;;;;5052050;28;20231;-61
2023/08/23 07:38:24;;;;;;;0.00;0.00;;;35.90;68.50;;;;;;5051900;28;20173;-61
2023/08/23 07:40:50;;;;;;;0.20;0.20;;;36.00;67.30;;;;;;5051843;28;20539;-61
2023/08/23 07:43:15;;;;;;;0.00;0.00;;;36.20;66.40;;;;;;5051743;28;20180;-61
2023/08/23 07:45:41;;;;;;;0.00;0.00;;;36.20;66.70;;;;;;5051972;28;20176;-61
2023/08/23 07:48:06;;;;;;;0.00;0.00;;;36.20;67.60;;;;;;5051633;28;20181;-61
2023/08/23 07:50:32;;;;;;;0.00;0.00;;;36.30;65.60;;;;;;5051852;28;20227;-62
2023/08/23 07:52:57;;;;;;;0.00;0.00;;;36.50;65.70;;;;;;5051572;28;20682;-62
2023/08/23 07:55:23;;;;;;;0.10;0.10;;;36.60;65.20;;;;;;5051615;28;20212;-62
2023/08/23 07:57:49;;;;;;;0.10;0.10;;;36.80;63.40;;;;;;5051527;28;20173;-63
2023/08/23 08:00:15;;;;;;;0.00;0.00;;;37.00;65.00;;;;;;5051563;28;20185;-62
2023/08/23 08:02:41;;;;;;;0.10;0.08;;;37.10;62.30;;;;;;5051555;28;20180;-62
2023/08/23 08:05:07;;;;;;;0.00;0.00;;;37.00;60.30;;;;;;5051380;28;20530;-62
2023/08/23 08:07:33;;;;;;;0.00;0.00;;;37.10;61.80;;;;;;5051530;28;20178;-62
2023/08/23 08:09:58;;;;;;;0.00;0.00;;;37.20;60.10;;;;;;5051392;28;20628;-62
2023/08/23 08:12:24;;;;;;;0.00;0.00;;;37.00;60.00;;;;;;5051372;28;20666;-62
2023/08/23 08:14:49;;;;;;;0.00;0.00;;;37.00;61.40;;;;;;5051279;28;20223;-62
2023/08/23 08:17:15;;;;;;;0.00;0.00;;;37.10;61.10;;;;;;5051449;28;20189;-62
2023/08/23 08:19:41;;;;;;;0.00;0.00;;;37.20;60.10;;;;;;5051393;28;20177;-62
2023/08/23 08:22:06;;;;;;;0.00;0.00;;;37.40;59.80;;;;;;5051276;28;20191;-62
2023/08/23 08:24:32;;;;;;;0.00;0.00;;;37.40;59.40;;;;;;5051326;28;20181;-62
2023/08/23 08:26:57;;;;;;;0.10;0.10;;;37.60;59.90;;;;;;5051191;28;20270;-62
2023/08/23 08:29:23;;;;;;;0.00;0.00;;;37.70;60.60;;;;;;5051043;28;20199;-62
2023/08/23 08:31:50;;;;;;;0.05;0.05;;;37.80;57.70;;;;;;5051221;28;20180;-62
2023/08/23 08:34:17;;;;;;;0.00;0.00;;;37.60;57.10;;;;;;5051072;28;20695;-62
2023/08/23 08:36:43;;;;;;;0.00;0.00;;;37.20;57.10;;;;;;5051070;28;20260;-62
2023/08/23 08:39:08;;;;;;;0.10;0.10;;;36.90;58.90;;;;;;5051010;28;20267;-62
2023/08/23 08:41:34;;;;;;;0.00;0.00;;;36.80;59.70;;;;;;5052200;28;20237;-62
2023/08/23 08:44:00;;;;;;;0.00;0.00;;;37.00;60.20;;;;;;5055217;28;20578;-62
2023/08/23 08:46:26;;;;;;;0.05;0.00;;;37.00;57.80;;;;;;5055231;28;20177;-62
2023/08/23 08:48:51;;;;;;;0.00;0.00;;;36.90;57.40;;;;;;5055133;28;20207;-64
2023/08/23 08:51:20;;;;;;;0.00;0.00;;;36.80;58.90;;;;;;5055161;28;20531;-61
2023/08/23 08:53:51;;;;;;;0.00;0.00;;;36.70;58.00;;;;;;5054878;28;20212;-61
2023/08/23 08:56:19;;;;;;;0.00;0.00;;;36.70;59.90;;;;;;5055170;28;20196;-61
2023/08/23 08:58:46;;;;;;;0.00;0.00;;;36.80;59.10;;;;;;5054874;28;20172;-61
2023/08/23 09:01:13;;;;;;;0.10;0.10;;;36.90;57.70;;;;;;5054903;28;20687;-61
2023/08/23 09:03:40;;;;;;;0.05;0.05;;;36.70;58.80;;;;;;5054777;28;20528;-61
2023/08/23 09:06:07;;;;;;;0.10;0.10;;;36.50;56.90;;;;;;5054644;28;20584;-61
2023/08/23 09:08:33;;;;;;;0.00;0.00;;;36.10;57.90;;;;;;5054687;28;20195;-61
2023/08/23 09:10:59;;;;;;;0.00;0.00;;;35.90;59.30;;;;;;5054657;28;20211;-61
2023/08/23 09:13:25;;;;;;;0.00;0.00;;;35.80;57.90;;;;;;5054547;28;20197;-61
2023/08/23 09:15:51;;;;;;;0.00;0.00;;;35.70;58.70;;;;;;5054637;28;20184;-61
2023/08/23 09:18:19;;;;;;;0.00;0.00;;;35.80;59.20;;;;;;5054605;28;20183;-61
2023/08/23 09:20:46;;;;;;;0.00;0.00;;;36.00;59.00;;;;;;5054418;28;20179;-61
2023/08/23 09:23:11;;;;;;;0.00;0.00;;;36.20;59.80;;;;;;5054517;28;20215;-60
2023/08/23 09:25:37;;;;;;;0.00;0.00;;;36.30;57.70;;;;;;5054502;28;20197;-61
2023/08/23 09:28:03;;;;;;;0.00;0.00;;;36.20;58.30;;;;;;5054214;28;20604;-61
2023/08/23 09:30:28;;;;;;;0.00;0.00;;;36.20;56.80;;;;;;5054307;28;20229;-61
2023/08/23 09:32:57;;;;;;;0.00;0.00;;;36.20;57.20;;;;;;5054274;28;20533;-61
2023/08/23 09:35:22;;;;;;;0.00;0.00;;;36.20;56.50;;;;;;5054049;28;20219;-61
2023/08/23 09:37:48;;;;;;;0.00;0.00;;;36.30;59.30;;;;;;5054242;28;20176;-61
2023/08/23 09:40:25;;;;;;;0.00;0.00;;;36.40;57.90;;;;;;5054096;28;20542;-61
2023/08/23 09:42:52;;;;;;;0.00;0.00;;;36.60;56.80;;;;;;5054138;28;20177;-61
2023/08/23 09:45:20;;;;;;;0.10;0.10;;;36.70;58.10;;;;;;5054187;28;20208;-61
2023/08/23 09:47:53;;;;;;;0.00;0.00;;;36.80;56.00;;;;;;5054043;28;20173;-61
2023/08/23 09:50:23;;;;;;;0.00;0.00;;;36.90;55.80;;;;;;5053969;28;20195;-61
2023/08/23 09:52:52;;;;;;;0.00;0.00;;;37.10;57.80;;;;;;5053362;28;20238;-61
2023/08/23 09:55:18;;;;;;;0.05;0.05;;;37.30;55.70;;;;;;5053778;28;20857;-61
2023/08/23 09:57:44;;;;;;;0.00;0.00;;;37.30;52.30;;;;;;5053883;28;20183;-62
2023/08/23 10:00:10;;;;;;;0.00;0.00;;;37.00;52.20;;;;;;5053729;28;20180;-61
2023/08/23 10:02:36;;;;;;;0.00;0.00;;;36.90;52.60;;;;;;5053785;28;20161;-61
2023/08/23 10:05:06;;;;;;;0.00;0.00;;;36.80;53.60;;;;;;5052286;28;20290;-61
2023/08/23 10:07:35;;;;;;;0.00;0.00;;;36.70;55.60;;;;;;5053546;28;20168;-61
2023/08/23 10:10:03;;;;;;;0.03;0.03;;;36.60;54.60;;;;;;5053568;28;20527;-61
2023/08/23 10:12:29;;;;;;;0.00;0.00;;;36.60;54.70;;;;;;5053687;28;20248;-61
2023/08/23 10:14:57;;;;;;;0.00;0.00;;;36.70;53.00;;;;;;5052194;28;20562;-61
2023/08/23 10:17:24;;;;;;;0.00;0.00;;;36.80;54.20;;;;;;5053433;28;20165;-61
2023/08/23 10:19:50;;;;;;;0.10;0.10;;;36.80;54.10;;;;;;5053413;28;20639;-61
2023/08/23 10:22:17;;;;;;;0.10;0.10;;;36.90;55.10;;;;;;5053286;28;20173;-61
2023/08/23 10:24:49;;;;;;;0.00;0.00;;;36.80;55.80;;;;;;5053184;28;20242;-61
2023/08/23 10:27:16;;;;;;;0.00;0.00;;;36.80;53.60;;;;;;5053401;28;20195;-61
2023/08/23 10:29:41;;;;;;;0.00;0.00;;;36.70;53.20;;;;;;5053087;28;20220;-62
2023/08/23 10:32:11;;;;;;;0.00;0.00;;;36.60;53.10;;;;;;5053205;28;20173;-61
2023/08/23 10:34:38;;;;;;;0.08;0.08;;;36.50;53.50;;;;;;5053188;28;20213;-61
2023/08/23 10:37:18;;;;;;;0.00;0.00;;;36.40;54.50;;;;;;5052919;28;20263;-61
2023/08/23 10:39:50;;;;;;;0.00;0.00;;;36.60;54.00;;;;;;5053123;28;20172;-61
2023/08/23 10:42:19;;;;;;;0.00;0.00;;;36.60;54.10;;;;;;5052914;28;20208;-62
2023/08/23 10:44:57;;;;;;;0.00;0.00;;;36.00;55.20;;;;;;5052929;28;20188;-61
2023/08/23 10:47:23;;;;;;;0.05;0.05;;;35.60;55.70;;;;;;5053008;28;20187;-61
2023/08/23 10:49:50;;;;;;;0.00;0.00;;;35.60;56.30;;;;;;5052938;28;20168;-61
2023/08/23 10:52:15;;;;;;;0.00;0.00;;;35.50;56.90;;;;;;5052827;28;20172;-61
2023/08/23 10:54:41;;;;;;;0.00;0.00;;;35.60;55.50;;;;;;5052822;28;20669;-61
2023/08/23 10:57:07;;;;;;;0.00;0.00;;;35.80;56.80;;;;;;5052745;28;20256;-62
2023/08/23 10:59:33;;;;;;;0.00;0.00;;;36.00;55.80;;;;;;5052764;28;20260;-62
2023/08/23 11:01:58;;;;;;;0.00;0.00;;;36.10;55.10;;;;;;5052586;28;20181;-62
2023/08/23 11:04:24;;;;;;;0.00;0.00;;;36.10;54.60;;;;;;5051651;28;20323;-61
2023/08/23 11:06:51;;;;;;;0.00;0.00;;;36.00;54.70;;;;;;5052735;28;20177;-61
2023/08/23 11:09:17;;;;;;;0.00;0.00;;;35.80;55.10;;;;;;5052569;28;20192;-61
2023/08/23 11:11:43;;;;;;;0.00;0.00;;;35.80;55.60;;;;;;5052448;28;20635;-62
2023/08/23 11:14:09;;;;;;;0.10;0.10;;;36.00;54.80;;;;;;5052261;28;20258;-61
2023/08/23 11:16:35;;;;;;;0.00;0.00;;;36.00;54.40;;;;;;5052360;28;20890;-62
2023/08/23 11:19:03;;;;;;;0.00;0.00;;;35.80;54.40;;;;;;5052245;28;20184;-61
2023/08/23 11:21:31;;;;;;;0.00;0.00;;;35.70;54.30;;;;;;5052437;28;20271;-62
2023/08/23 11:23:57;;;;;;;0.00;0.00;;;35.60;54.70;;;;;;5052178;28;20180;-61
2023/08/23 11:26:22;;;;;;;0.20;0.17;;;35.60;55.50;;;;;;5052266;28;20177;-61
2023/08/23 11:28:50;;;;;;;0.28;0.28;;;35.50;56.10;;;;;;5052147;28;20169;-61
2023/08/23 11:31:16;;;;;;;0.00;0.00;;;35.40;55.50;;;;;;5052036;28;20314;-61
2023/08/23 11:33:41;;;;;;;0.00;0.00;;;35.50;55.80;;;;;;5051889;28;20632;-61
2023/08/23 11:36:09;;;;;;;0.00;0.00;;;35.60;55.30;;;;;;5051872;28;20242;-62
2023/08/23 11:38:35;;;;;;;0.00;0.00;;;35.60;54.60;;;;;;5052001;28;20299;-61
2023/08/23 11:41:00;;;;;;;0.00;0.00;;;35.50;54.40;;;;;;5051805;28;20169;-62
2023/08/23 11:43:27;;;;;;;0.25;0.25;;;35.60;55.70;;;;;;5051855;28;20208;-62
2023/08/23 11:45:53;;;;;;;0.00;0.00;;;35.90;56.20;;;;;;5051867;28;20180;-61
2023/08/23 11:48:20;;;;;;;0.00;0.00;;;36.10;55.30;;;;;;5051939;28;20181;-62
2023/08/23 11:50:45;;;;;;;0.00;0.00;;;36.10;54.80;;;;;;5051684;28;20180;-61
2023/08/23 11:53:12;;;;;;;0.00;0.00;;;36.00;54.60;;;;;;5051662;28;20185;-61
2023/08/23 11:55:40;;;;;;;0.00;0.00;;;36.00;55.20;;;;;;5051534;28;20719;-62
2023/08/23 11:58:06;;;;;;;0.00;0.00;;;36.00;55.60;;;;;;5051314;28;20176;-62
2023/08/23 12:00:33;;;;;;;0.00;0.00;;;36.00;55.30;;;;;;5051638;28;20229;-61
2023/08/23 12:02:59;;;;;;;0.00;0.00;;;35.60;53.50;;;;;;5051445;28;20177;-62
2023/08/23 12:05:24;;;;;;;0.05;0.05;;;35.40;54.50;;;;;;5051510;28;20187;-61
2023/08/23 12:07:50;;;;;;;0.10;0.10;;;35.00;54.30;;;;;;5051393;28;20180;-62
2023/08/23 12:10:15;;;;;;;0.10;0.10;;;34.50;55.90;;;;;;5051445;28;20275;-61
2023/08/23 12:12:41;;;;;;;0.00;0.00;;;34.40;56.80;;;;;;5051501;28;20323;-61
2023/08/23 12:15:07;;;;;;;0.00;0.00;;;34.50;57.20;;;;;;5051080;28;20244;-61
2023/08/23 12:17:34;;;;;;;0.00;0.00;;;34.50;56.00;;;;;;5051403;28;20177;-61
2023/08/23 12:19:59;;;;;;;0.00;0.00;;;34.70;54.70;;;;;;5051268;28;20181;-62
2023/08/23 12:22:25;;;;;;;0.00;0.00;;;34.60;55.80;;;;;;5051338;28;20694;-61
2023/08/23 12:24:51;;;;;;;0.00;0.00;;;34.50;55.60;;;;;;5051261;28;20185;-62
2023/08/23 12:27:17;;;;;;;0.00;0.00;;;34.60;54.90;;;;;;5051221;28;20234;-62
2023/08/23 12:29:42;;;;;;;0.00;0.00;;;34.70;55.10;;;;;;5051059;28;20217;-61
2023/08/23 12:32:08;;;;;;;0.05;0.03;;;34.90;53.60;;;;;;5051120;28;20629;-62
2023/08/23 12:34:34;;;;;;;0.00;0.00;;;35.00;54.10;;;;;;5051174;28;20228;-62
2023/08/23 12:37:00;;;;;;;0.10;0.10;;;35.10;54.60;;;;;;5051060;28;20203;-62
2023/08/23 12:39:26;;;;;;;0.00;0.00;;;35.20;54.40;;;;;;5051139;28;20176;-62
2023/08/23 12:41:52;;;;;;;0.20;0.20;;;35.20;54.10;;;;;;5051096;28;20234;-62
2023/08/23 12:44:18;;;;;;;0.00;0.00;;;35.20;54.20;;;;;;5051082;28;20565;-62